Time;durP1;ratioP1;P1;durP2;ratioP2;P2;SDS_P1;SDS_P2;PMS_P1;PMS_P2;Temp;Humidity;BMP_temperature;BMP_pressure;BME280_temperature;BME280_humidity;BME280_pressure;Samples;Min_cycle;Max_cycle;Signal;HPM_P1;HPM_P2
2022/09/04 00:01:46;;;;;;;1.98;0.90;;;;;;;;;;2372729;56;21050;-74
2022/09/04 00:04:18;;;;;;;1.62;0.93;;;;;;;;;;2372006;56;21533;-74
2022/09/04 00:06:52;;;;;;;2.25;1.05;;;;;;;;;;2373688;56;21086;-73
2022/09/04 00:09:24;;;;;;;1.55;1.00;;;;;;;;;;2373429;56;21043;-73
2022/09/04 00:11:55;;;;;;;1.73;1.05;;;;;;;;;;2373078;56;21036;-74
2022/09/04 00:14:26;;;;;;;1.37;1.20;;;;;;;;;;2626551;52;21054;-74
2022/09/04 00:17:00;;;;;;;2.80;1.10;;;;;;;;;;2373045;56;21050;-74
2022/09/04 00:19:32;;;;;;;1.17;0.88;;;;;;;;;;2373597;56;21047;-74
2022/09/04 00:22:00;;;;;;;3.87;1.27;;;;;;;;;;2373801;56;21519;-74
2022/09/04 00:24:30;;;;;;;1.50;1.05;;;;;;;;;;2373278;56;21043;-75
2022/09/04 00:26:59;;;;;;;1.30;1.00;;;;;;;;;;2373007;56;21188;-75
2022/09/04 00:29:30;;;;;;;1.55;1.00;;;;;;;;;;2372094;56;21050;-74
2022/09/04 00:32:02;;;;;;;1.67;1.02;;;;;;;;;;2372602;56;21043;-74
2022/09/04 00:34:39;;;;;;;1.27;1.00;;;;;;;;;;2371958;56;21535;-73
2022/09/04 00:37:07;;;;;;;3.47;1.10;;;;;;;;;;2371093;56;21561;-74
2022/09/04 00:39:37;;;;;;;1.55;1.10;;;;;;;;;;2371778;56;21047;-74
2022/09/04 00:42:13;;;;;;;3.83;1.17;;;;;;;;;;2372662;56;21047;-73
2022/09/04 00:44:47;;;;;;;3.62;1.20;;;;;;;;;;2372800;56;21511;-73
2022/09/04 00:47:40;;;;;;;1.65;0.90;;;;;;;;;;2371464;56;21114;-76
2022/09/04 00:50:32;;;;;;;1.62;0.80;;;;;;;;;;2366189;56;21038;-74
2022/09/04 00:53:05;;;;;;;0.77;0.77;;;;;;;;;;2366270;56;21395;-75
2022/09/04 00:55:44;;;;;;;2.27;0.90;;;;;;;;;;2372825;56;21612;-76
2022/09/04 00:58:20;;;;;;;3.30;1.20;;;;;;;;;;2371667;56;21283;-76
2022/09/04 01:00:47;;;;;;;3.50;1.20;;;;;;;;;;2372440;56;21118;-72
2022/09/04 01:03:32;;;;;;;2.58;1.10;;;;;;;;;;2371811;56;21561;-74
2022/09/04 01:06:08;;;;;;;1.87;0.93;;;;;;;;;;2370374;56;21051;-75
2022/09/04 01:11:15;;;;;;;3.90;1.30;;;;;;;;;;2327039;57;22075;-74
2022/09/04 01:13:45;;;;;;;1.83;0.68;;;;;;;;;;2439996;52;21063;-73
2022/09/04 01:16:15;;;;;;;2.12;0.93;;;;;;;;;;2319073;58;21062;-75
2022/09/04 01:18:45;;;;;;;2.60;1.02;;;;;;;;;;2320094;58;21047;-75
2022/09/04 01:21:25;;;;;;;2.17;0.80;;;;;;;;;;2319062;58;21051;-75
2022/09/04 01:24:01;;;;;;;2.42;1.00;;;;;;;;;;2503267;54;21059;-75
2022/09/04 01:26:32;;;;;;;5.03;1.00;;;;;;;;;;2328154;54;21128;-74
2022/09/04 01:29:06;;;;;;;1.48;1.08;;;;;;;;;;2318546;58;21119;-75
2022/09/04 01:31:37;;;;;;;1.00;0.90;;;;;;;;;;2319107;58;21157;-75
2022/09/04 01:34:10;;;;;;;3.00;1.10;;;;;;;;;;2319269;58;21039;-75
2022/09/04 01:36:43;;;;;;;2.62;1.23;;;;;;;;;;2404190;54;21043;-75
2022/09/04 01:39:10;;;;;;;2.17;1.37;;;;;;;;;;2319283;58;21051;-75
2022/09/04 01:41:40;;;;;;;1.58;1.15;;;;;;;;;;2319334;58;21644;-74
2022/09/04 01:44:09;;;;;;;2.00;1.30;;;;;;;;;;2319826;58;21114;-73
2022/09/04 01:46:49;;;;;;;3.58;1.08;;;;;;;;;;2325784;54;21784;-75
2022/09/04 01:49:23;;;;;;;1.87;1.10;;;;;;;;;;2326067;54;21692;-75
2022/09/04 01:51:55;;;;;;;3.42;0.93;;;;;;;;;;2328664;54;21537;-74
2022/09/04 01:54:31;;;;;;;2.30;1.02;;;;;;;;;;2318818;58;21834;-73
2022/09/04 01:57:06;;;;;;;1.62;1.20;;;;;;;;;;2318699;58;21065;-75
2022/09/04 01:59:40;;;;;;;1.92;1.20;;;;;;;;;;2319061;58;21118;-75
2022/09/04 02:02:06;;;;;;;;;;;;;;;;;;2322349;58;21110;-74
2022/09/04 02:04:37;;;;;;;1.90;1.17;;;;;;;;;;2319707;58;20318;-75
2022/09/04 02:07:12;;;;;;;3.92;1.30;;;;;;;;;;2319186;58;21042;-73
2022/09/04 02:09:43;;;;;;;1.35;1.00;;;;;;;;;;2319879;58;21122;-76
2022/09/04 02:12:17;;;;;;;1.23;0.98;;;;;;;;;;2340341;54;21098;-75
2022/09/04 02:14:48;;;;;;;1.62;1.12;;;;;;;;;;2352585;57;21041;-75
2022/09/04 02:17:18;;;;;;;1.58;1.00;;;;;;;;;;2350966;57;21118;-75
2022/09/04 02:19:52;;;;;;;2.85;1.67;;;;;;;;;;2353153;57;21163;-75
2022/09/04 02:22:24;;;;;;;1.10;1.00;;;;;;;;;;2350999;57;21540;-75
2022/09/04 02:24:53;;;;;;;3.58;1.15;;;;;;;;;;2350537;57;21121;-76
2022/09/04 02:27:25;;;;;;;1.85;1.17;;;;;;;;;;2350593;57;21101;-75
2022/09/04 02:29:55;;;;;;;1.27;1.08;;;;;;;;;;2351175;57;21044;-75
2022/09/04 02:32:29;;;;;;;2.40;1.30;;;;;;;;;;2453095;53;21096;-74
2022/09/04 02:34:58;;;;;;;5.15;1.40;;;;;;;;;;2350235;57;21033;-75
2022/09/04 02:37:27;;;;;;;1.50;1.02;;;;;;;;;;2347866;57;21646;-75
2022/09/04 02:40:00;;;;;;;3.65;1.40;;;;;;;;;;2350041;57;21045;-75
2022/09/04 02:42:31;;;;;;;2.60;1.20;;;;;;;;;;2350514;57;21586;-75
2022/09/04 02:45:04;;;;;;;2.03;1.10;;;;;;;;;;2350912;57;21112;-75
2022/09/04 02:47:33;;;;;;;2.75;1.45;;;;;;;;;;2351001;57;21618;-75
2022/09/04 02:50:03;;;;;;;1.37;1.05;;;;;;;;;;2351436;57;21057;-76
2022/09/04 02:52:42;;;;;;;2.65;1.10;;;;;;;;;;2351408;57;21108;-75
2022/09/04 02:55:17;;;;;;;3.12;1.08;;;;;;;;;;2349881;57;21528;-75
2022/09/04 02:57:53;;;;;;;2.95;1.00;;;;;;;;;;2350709;57;21552;-75
2022/09/04 03:00:21;;;;;;;3.40;1.20;;;;;;;;;;2351242;57;21104;-73
2022/09/04 03:02:52;;;;;;;1.40;0.90;;;;;;;;;;2350637;57;21048;-73
2022/09/04 03:05:20;;;;;;;2.55;1.15;;;;;;;;;;2350822;57;21132;-75
2022/09/04 03:07:51;;;;;;;2.17;1.15;;;;;;;;;;2350480;57;21117;-75
2022/09/04 03:10:19;;;;;;;1.42;1.12;;;;;;;;;;2350415;57;21041;-75
2022/09/04 03:12:50;;;;;;;1.62;0.90;;;;;;;;;;2350273;57;21060;-75
2022/09/04 03:15:20;;;;;;;3.50;1.35;;;;;;;;;;2351036;57;21551;-75
2022/09/04 03:17:49;;;;;;;2.12;1.30;;;;;;;;;;2351299;57;21121;-75
2022/09/04 03:20:20;;;;;;;1.50;1.10;;;;;;;;;;2351460;57;21055;-75
2022/09/04 03:22:50;;;;;;;0.98;0.93;;;;;;;;;;2351426;57;21057;-75
2022/09/04 03:25:35;;;;;;;1.27;1.10;;;;;;;;;;2350359;57;21249;-75
2022/09/04 03:28:02;;;;;;;1.08;0.90;;;;;;;;;;2349903;57;21049;-75
2022/09/04 03:30:32;;;;;;;1.90;1.35;;;;;;;;;;2349843;57;21635;-75
2022/09/04 03:33:02;;;;;;;3.58;1.30;;;;;;;;;;2350411;57;21558;-75
2022/09/04 03:35:33;;;;;;;2.58;1.30;;;;;;;;;;2357827;53;21064;-75
2022/09/04 03:38:06;;;;;;;1.90;1.30;;;;;;;;;;2350919;57;21106;-75
2022/09/04 03:40:32;;;;;;;;;;;;;;;;;;2354586;57;21089;-75
2022/09/04 03:43:10;;;;;;;1.87;1.00;;;;;;;;;;2350853;57;20419;-75
2022/09/04 03:45:42;;;;;;;1.30;1.10;;;;;;;;;;2350447;57;21540;-75
2022/09/04 03:48:15;;;;;;;1.65;1.10;;;;;;;;;;2351334;57;21493;-75
2022/09/04 03:50:47;;;;;;;1.37;1.10;;;;;;;;;;2350313;57;21707;-75
2022/09/04 03:53:21;;;;;;;1.45;1.10;;;;;;;;;;2350849;57;21052;-75
2022/09/04 03:55:57;;;;;;;3.05;1.20;;;;;;;;;;2349418;57;21033;-75
2022/09/04 03:58:27;;;;;;;3.15;1.45;;;;;;;;;;2350593;57;21607;-75
2022/09/04 04:01:02;;;;;;;1.20;1.10;;;;;;;;;;2351344;57;22184;-76
2022/09/04 04:03:55;;;;;;;3.67;1.30;;;;;;;;;;2350478;57;21116;-75
2022/09/04 04:06:28;;;;;;;1.95;0.90;;;;;;;;;;2308312;57;21100;-75
2022/09/04 04:09:04;;;;;;;1.17;1.05;;;;;;;;;;2350576;57;21109;-75
2022/09/04 04:11:37;;;;;;;1.52;1.23;;;;;;;;;;2351609;57;21567;-75
2022/09/04 04:14:18;;;;;;;5.03;1.42;;;;;;;;;;2327157;57;21536;-75
2022/09/04 04:16:51;;;;;;;2.00;1.50;;;;;;;;;;2357682;54;21184;-75
2022/09/04 04:19:25;;;;;;;3.33;1.10;;;;;;;;;;2300880;58;21036;-75
2022/09/04 04:21:58;;;;;;;2.17;1.27;;;;;;;;;;2367694;54;21653;-75
2022/09/04 04:24:31;;;;;;;5.22;1.30;;;;;;;;;;2301192;58;21603;-75
2022/09/04 04:27:06;;;;;;;1.52;1.42;;;;;;;;;;2300033;58;21411;-75
2022/09/04 04:29:54;;;;;;;6.62;1.37;;;;;;;;;;2300698;58;21064;-75
2022/09/04 04:32:29;;;;;;;2.20;1.17;;;;;;;;;;2300733;58;21471;-75
2022/09/04 04:35:07;;;;;;;3.67;1.20;;;;;;;;;;2299861;58;21041;-75
2022/09/04 04:37:38;;;;;;;1.70;1.10;;;;;;;;;;2355277;54;21048;-75
2022/09/04 04:40:08;;;;;;;3.70;1.45;;;;;;;;;;2299991;58;21033;-75
2022/09/04 04:42:39;;;;;;;1.30;1.20;;;;;;;;;;2299935;58;21068;-75
2022/09/04 04:48:46;;;;;;;2.22;1.40;;;;;;;;;;2442910;56;21071;-72
2022/09/04 04:51:19;;;;;;;2.20;1.20;;;;;;;;;;2298068;58;21056;-75
2022/09/04 04:53:51;;;;;;;1.90;1.17;;;;;;;;;;2299877;58;21623;-75
2022/09/04 04:56:22;;;;;;;1.55;1.20;;;;;;;;;;2299600;58;21090;-75
2022/09/04 04:59:05;;;;;;;1.45;1.30;;;;;;;;;;2300402;58;21868;-75
2022/09/04 05:01:42;;;;;;;2.00;1.23;;;;;;;;;;2300843;58;21511;-75
2022/09/04 05:04:14;;;;;;;1.92;1.20;;;;;;;;;;2300572;58;21139;-75
2022/09/04 05:06:47;;;;;;;1.75;1.25;;;;;;;;;;2299910;58;21172;-75
2022/09/04 05:09:13;;;;;;;;;;;;;;;;;;2299638;58;21509;-75
2022/09/04 05:11:43;;;;;;;2.35;1.35;;;;;;;;;;2296901;58;20079;-82
2022/09/04 05:14:21;;;;;;;4.62;1.25;;;;;;;;;;2299203;58;21051;-81
2022/09/04 05:16:52;;;;;;;3.15;1.17;;;;;;;;;;2328685;54;21055;-82
2022/09/04 05:19:23;;;;;;;3.08;1.48;;;;;;;;;;2331747;54;21039;-81
2022/09/04 05:21:53;;;;;;;2.33;1.15;;;;;;;;;;2308741;54;21071;-84
2022/09/04 05:24:25;;;;;;;3.05;1.70;;;;;;;;;;2337285;54;21069;-84
2022/09/04 05:26:55;;;;;;;2.65;1.30;;;;;;;;;;2299587;58;21354;-83
2022/09/04 05:29:26;;;;;;;2.65;1.40;;;;;;;;;;2315488;54;21096;-81
2022/09/04 05:31:55;;;;;;;3.33;1.52;;;;;;;;;;2302271;54;21057;-83
2022/09/04 05:34:49;;;;;;;3.30;1.58;;;;;;;;;;2321097;54;21622;-82
2022/09/04 05:37:15;;;;;;;;;;;;;;;;;;2310717;54;21108;-81
2022/09/04 05:39:48;;;;;;;1.50;0.88;;;;;;;;;;2304129;54;20068;-81
2022/09/04 05:42:23;;;;;;;4.10;1.70;;;;;;;;;;2300555;58;21187;-82
2022/09/04 05:44:56;;;;;;;1.85;1.20;;;;;;;;;;2304410;54;21535;-82
2022/09/04 05:47:23;;;;;;;;;;;;;;;;;;2303095;58;21056;-82
2022/09/04 05:49:59;;;;;;;1.58;1.33;;;;;;;;;;2299458;58;20091;-81
2022/09/04 05:52:34;;;;;;;2.15;1.30;;;;;;;;;;2299655;58;21052;-82
2022/09/04 05:55:16;;;;;;;1.50;1.08;;;;;;;;;;2298647;58;21107;-82
2022/09/04 05:57:49;;;;;;;8.50;1.52;;;;;;;;;;2300300;58;21123;-83
2022/09/04 06:00:17;;;;;;;1.95;1.42;;;;;;;;;;2300925;58;21056;-83
2022/09/04 06:03:07;;;;;;;2.97;1.60;;;;;;;;;;2300253;58;21060;-81
2022/09/04 06:05:42;;;;;;;4.40;1.30;;;;;;;;;;2297451;58;21130;-75
2022/09/04 06:08:18;;;;;;;1.60;1.50;;;;;;;;;;2300883;58;22089;-75
2022/09/04 06:10:51;;;;;;;2.60;1.35;;;;;;;;;;2300837;58;21116;-75
2022/09/04 06:13:29;;;;;;;3.78;1.23;;;;;;;;;;2300863;58;21111;-75
2022/09/04 06:16:05;;;;;;;1.52;1.40;;;;;;;;;;2300287;58;21056;-75
2022/09/04 06:18:46;;;;;;;1.83;1.25;;;;;;;;;;2300993;58;21127;-76
2022/09/04 06:21:22;;;;;;;5.30;1.42;;;;;;;;;;2447238;54;21192;-75
2022/09/04 06:24:01;;;;;;;5.00;1.23;;;;;;;;;;2300968;58;21590;-75
2022/09/04 06:26:33;;;;;;;1.75;1.25;;;;;;;;;;2300248;58;21068;-76
2022/09/04 06:29:04;;;;;;;3.37;1.25;;;;;;;;;;2395612;54;21072;-75
2022/09/04 06:31:55;;;;;;;1.37;1.17;;;;;;;;;;2301020;58;21112;-75
2022/09/04 06:34:27;;;;;;;2.72;1.37;;;;;;;;;;2289013;58;21407;-76
2022/09/04 06:37:00;;;;;;;3.72;1.52;;;;;;;;;;2300521;58;21124;-75
2022/09/04 06:39:38;;;;;;;4.53;1.60;;;;;;;;;;2301380;58;21688;-75
2022/09/04 06:42:11;;;;;;;2.85;1.33;;;;;;;;;;2300951;58;21614;-75
2022/09/04 06:44:57;;;;;;;1.52;1.35;;;;;;;;;;2301150;58;21515;-75
2022/09/04 06:47:29;;;;;;;1.17;1.05;;;;;;;;;;2300422;58;21516;-75
2022/09/04 06:50:12;;;;;;;1.52;1.30;;;;;;;;;;2301077;58;21720;-75
2022/09/04 06:52:45;;;;;;;2.40;1.48;;;;;;;;;;2300976;58;21052;-75
2022/09/04 06:55:15;;;;;;;2.37;1.50;;;;;;;;;;2347289;54;21523;-75
2022/09/04 06:57:51;;;;;;;3.75;1.50;;;;;;;;;;2300719;58;21128;-75
2022/09/04 07:00:19;;;;;;;1.73;1.50;;;;;;;;;;2301029;58;21039;-75
2022/09/04 07:02:57;;;;;;;1.87;1.37;;;;;;;;;;2300890;58;21048;-75
2022/09/04 07:05:26;;;;;;;3.65;1.42;;;;;;;;;;2300516;58;21132;-75
2022/09/04 07:07:58;;;;;;;2.03;1.30;;;;;;;;;;2300814;58;21060;-75
2022/09/04 07:10:28;;;;;;;2.00;1.52;;;;;;;;;;2301160;58;21128;-75
2022/09/04 07:13:05;;;;;;;1.95;1.35;;;;;;;;;;2362134;55;72826;-79
2022/09/04 07:15:57;;;;;;;1.52;1.42;;;;;;;;;;2250693;60;21642;-79
2022/09/04 07:18:33;;;;;;;2.28;1.60;;;;;;;;;;2251017;60;21113;-79
2022/09/04 07:21:05;;;;;;;3.17;1.73;;;;;;;;;;2477322;56;21558;-79
2022/09/04 07:23:37;;;;;;;1.52;1.40;;;;;;;;;;2476463;56;21053;-79
2022/09/04 07:26:11;;;;;;;3.60;2.10;;;;;;;;;;2249587;60;21783;-79
2022/09/04 07:28:57;;;;;;;2.30;1.62;;;;;;;;;;2249637;60;21590;-78
2022/09/04 07:31:27;;;;;;;1.98;1.77;;;;;;;;;;2475511;56;21085;-79
2022/09/04 07:33:59;;;;;;;8.13;1.80;;;;;;;;;;2475464;56;21113;-79
2022/09/04 07:36:31;;;;;;;3.80;1.70;;;;;;;;;;2249472;60;21062;-78
2022/09/04 07:39:04;;;;;;;2.47;1.60;;;;;;;;;;2476004;56;21093;-79
2022/09/04 07:41:34;;;;;;;3.30;1.67;;;;;;;;;;2249798;60;21149;-79
2022/09/04 07:44:05;;;;;;;3.10;1.87;;;;;;;;;;2475891;56;21054;-79
2022/09/04 07:46:35;;;;;;;3.80;2.10;;;;;;;;;;2475506;56;21058;-79
2022/09/04 07:49:08;;;;;;;4.03;2.20;;;;;;;;;;2249738;60;21594;-79
2022/09/04 07:51:41;;;;;;;4.35;2.00;;;;;;;;;;2249979;60;21705;-79
2022/09/04 07:54:17;;;;;;;3.08;1.98;;;;;;;;;;2475825;56;21077;-79
2022/09/04 07:56:58;;;;;;;3.47;1.92;;;;;;;;;;2475387;56;21085;-79
2022/09/04 07:59:35;;;;;;;3.12;2.00;;;;;;;;;;2475985;56;21598;-79
2022/09/04 08:02:11;;;;;;;5.00;2.15;;;;;;;;;;2475783;56;21646;-79
2022/09/04 08:04:45;;;;;;;3.05;1.90;;;;;;;;;;2475908;56;21081;-78
2022/09/04 08:07:11;;;;;;;;;;;;;;;;;;2253078;60;21081;-79
2022/09/04 08:09:40;;;;;;;2.90;1.80;;;;;;;;;;2249912;60;20061;-78
2022/09/04 08:12:22;;;;;;;2.00;1.58;;;;;;;;;;2475684;56;21153;-79
2022/09/04 08:14:53;;;;;;;2.95;1.98;;;;;;;;;;2249813;60;21074;-79
2022/09/04 08:17:42;;;;;;;3.72;2.20;;;;;;;;;;2249667;60;21090;-79
2022/09/04 08:20:17;;;;;;;5.25;2.37;;;;;;;;;;2249716;60;21129;-79
2022/09/04 08:22:48;;;;;;;4.62;2.10;;;;;;;;;;2475716;56;21054;-78
2022/09/04 08:25:19;;;;;;;4.37;2.00;;;;;;;;;;2249371;60;21118;-78
2022/09/04 08:27:54;;;;;;;5.00;2.40;;;;;;;;;;2249715;60;21164;-79
2022/09/04 08:30:21;;;;;;;5.57;2.65;;;;;;;;;;2249697;60;21089;-78
2022/09/04 08:32:59;;;;;;;3.47;2.10;;;;;;;;;;2475591;56;21078;-79
2022/09/04 08:35:31;;;;;;;3.42;2.40;;;;;;;;;;2249189;60;21118;-79
2022/09/04 08:38:17;;;;;;;3.83;2.17;;;;;;;;;;2475949;56;21140;-79
2022/09/04 08:41:05;;;;;;;7.70;3.10;;;;;;;;;;2475605;56;21066;-79
2022/09/04 08:43:38;;;;;;;5.00;2.45;;;;;;;;;;2249956;60;21070;-79
2022/09/04 08:46:17;;;;;;;2.92;2.28;;;;;;;;;;2475549;56;21062;-79
2022/09/04 08:49:09;;;;;;;4.60;2.40;;;;;;;;;;2249600;60;21137;-79
2022/09/04 08:51:45;;;;;;;3.90;2.47;;;;;;;;;;2475827;56;21078;-78
2022/09/04 08:54:31;;;;;;;3.25;2.60;;;;;;;;;;2249684;60;21093;-78
2022/09/04 08:57:09;;;;;;;2.60;2.17;;;;;;;;;;2249196;60;21125;-79
2022/09/04 09:00:08;;;;;;;2.70;2.30;;;;;;;;;;2475736;56;21089;-78
2022/09/04 09:03:03;;;;;;;5.72;2.72;;;;;;;;;;2209232;60;21070;-78
2022/09/04 09:05:41;;;;;;;4.15;2.53;;;;;;;;;;2475353;56;21148;-79
2022/09/04 09:08:28;;;;;;;3.28;2.62;;;;;;;;;;2249777;60;21094;-79
2022/09/04 09:11:14;;;;;;;3.50;2.40;;;;;;;;;;2430163;56;21057;-79
2022/09/04 09:14:03;;;;;;;3.58;2.30;;;;;;;;;;2249590;60;21182;-79
2022/09/04 09:16:37;;;;;;;3.72;2.20;;;;;;;;;;2475375;56;21066;-79
2022/09/04 09:19:23;;;;;;;3.35;2.15;;;;;;;;;;2249853;60;21082;-79
2022/09/04 09:22:07;;;;;;;3.60;2.33;;;;;;;;;;2249560;60;21085;-78
2022/09/04 09:24:47;;;;;;;3.33;2.40;;;;;;;;;;2475743;56;21054;-79
2022/09/04 09:27:52;;;;;;;4.72;2.72;;;;;;;;;;2249191;60;21090;-79
2022/09/04 09:33:14;;;;;;;3.80;2.25;;;;;;;;;;2347920;57;22139;-77
2022/09/04 09:36:01;;;;;;;2.95;2.30;;;;;;;;;;2347422;57;21726;-77
2022/09/04 09:38:37;;;;;;;3.40;2.50;;;;;;;;;;2347895;57;21476;-77
2022/09/04 09:41:18;;;;;;;3.28;2.28;;;;;;;;;;2347992;57;21292;-77
2022/09/04 09:44:04;;;;;;;2.67;1.95;;;;;;;;;;2348137;57;21049;-77
2022/09/04 09:47:00;;;;;;;3.10;2.17;;;;;;;;;;2347282;57;21057;-77
2022/09/04 09:49:46;;;;;;;3.22;2.30;;;;;;;;;;2348045;57;21049;-77
2022/09/04 09:52:22;;;;;;;3.60;2.55;;;;;;;;;;2311513;57;21117;-77
2022/09/04 09:55:17;;;;;;;3.12;2.40;;;;;;;;;;2348000;57;21614;-77
2022/09/04 09:57:52;;;;;;;2.95;1.90;;;;;;;;;;2347887;57;21623;-77
2022/09/04 10:00:21;;;;;;;3.55;2.50;;;;;;;;;;2347939;57;21042;-77
2022/09/04 10:03:08;;;;;;;3.78;2.33;;;;;;;;;;2347754;57;21122;-77
2022/09/04 10:05:44;;;;;;;3.00;2.20;;;;;;;;;;2347838;57;21044;-77
2022/09/04 10:08:33;;;;;;;4.22;2.47;;;;;;;;;;2348004;57;21056;-77
2022/09/04 10:11:22;;;;;;;3.08;2.37;;;;;;;;;;2348005;57;21034;-77
2022/09/04 10:14:17;;;;;;;2.50;2.10;;;;;;;;;;2347996;57;21034;-77
2022/09/04 10:17:00;;;;;;;3.67;2.67;;;;;;;;;;2283812;57;21047;-77
2022/09/04 10:19:46;;;;;;;3.05;2.20;;;;;;;;;;2347882;57;21577;-77
2022/09/04 10:22:34;;;;;;;3.80;2.50;;;;;;;;;;2347783;57;22180;-77
2022/09/04 10:25:19;;;;;;;4.28;2.30;;;;;;;;;;2348055;57;21092;-77
2022/09/04 10:28:07;;;;;;;3.08;2.40;;;;;;;;;;2347392;57;21057;-77
2022/09/04 10:30:43;;;;;;;6.03;2.45;;;;;;;;;;2347926;57;21528;-77
2022/09/04 10:33:25;;;;;;;3.00;2.28;;;;;;;;;;2347568;57;21576;-77
2022/09/04 10:36:03;;;;;;;4.20;2.28;;;;;;;;;;2347584;57;21109;-77
2022/09/04 10:40:34;;;;;;;4.05;2.60;;;;;;;;;;2347713;57;21077;-77
2022/09/04 10:43:09;;;;;;;3.20;2.10;;;;;;;;;;2347426;57;21113;-77
2022/09/04 10:45:38;;;;;;;4.32;2.80;;;;;;;;;;2346492;57;21512;-77
2022/09/04 10:48:24;;;;;;;5.93;2.50;;;;;;;;;;2346863;57;21041;-77
2022/09/04 10:51:09;;;;;;;2.87;2.30;;;;;;;;;;2346802;57;21077;-77
2022/09/04 10:53:51;;;;;;;4.25;2.78;;;;;;;;;;2346600;57;21098;-77
2022/09/04 10:56:22;;;;;;;3.55;2.60;;;;;;;;;;2346443;57;21045;-77
2022/09/04 10:59:08;;;;;;;2.97;2.22;;;;;;;;;;2346991;57;21121;-77
2022/09/04 11:01:54;;;;;;;4.85;2.30;;;;;;;;;;2347028;57;21021;-77
2022/09/04 11:04:59;;;;;;;4.40;2.40;;;;;;;;;;2346882;57;21086;-77
2022/09/04 11:07:50;;;;;;;3.47;2.75;;;;;;;;;;2346552;57;21042;-77
2022/09/04 11:10:23;;;;;;;3.28;2.30;;;;;;;;;;2346821;57;21612;-77
2022/09/04 11:13:02;;;;;;;2.83;2.10;;;;;;;;;;2346968;57;21069;-77
2022/09/04 11:15:46;;;;;;;3.85;2.60;;;;;;;;;;2346377;57;21042;-77
2022/09/04 11:18:32;;;;;;;3.65;2.50;;;;;;;;;;2346929;57;21102;-77
2022/09/04 11:21:21;;;;;;;5.87;2.87;;;;;;;;;;2347122;57;21264;-77
2022/09/04 11:24:15;;;;;;;3.80;2.33;;;;;;;;;;2346804;57;21141;-77
2022/09/04 11:26:56;;;;;;;3.72;2.42;;;;;;;;;;2346612;57;21121;-77
2022/09/04 11:29:45;;;;;;;2.47;2.20;;;;;;;;;;2346818;57;21050;-77
2022/09/04 11:32:19;;;;;;;2.83;2.20;;;;;;;;;;2337701;57;21049;-77
2022/09/04 11:35:05;;;;;;;5.93;2.47;;;;;;;;;;2346848;57;21046;-77
2022/09/04 11:37:55;;;;;;;3.17;2.30;;;;;;;;;;2346666;57;21105;-77
2022/09/04 11:40:32;;;;;;;5.47;2.67;;;;;;;;;;2346954;57;21113;-77
2022/09/04 11:43:09;;;;;;;3.55;2.60;;;;;;;;;;2346854;57;21042;-77
2022/09/04 11:45:48;;;;;;;3.33;2.25;;;;;;;;;;2346538;57;21052;-77
2022/09/04 11:48:29;;;;;;;6.07;2.37;;;;;;;;;;2346810;57;21508;-77
2022/09/04 11:51:15;;;;;;;4.07;2.20;;;;;;;;;;2346943;57;21508;-77
2022/09/04 11:53:48;;;;;;;4.47;2.30;;;;;;;;;;2346775;57;21101;-77
2022/09/04 11:56:38;;;;;;;3.15;2.15;;;;;;;;;;2346540;57;21509;-77
2022/09/04 11:59:22;;;;;;;3.53;2.12;;;;;;;;;;2346868;57;21110;-77
2022/09/04 12:01:57;;;;;;;3.87;2.20;;;;;;;;;;2347017;57;21129;-77
2022/09/04 12:04:30;;;;;;;3.28;2.20;;;;;;;;;;2346827;57;21707;-77
2022/09/04 12:07:11;;;;;;;3.15;2.35;;;;;;;;;;2346708;57;21121;-77
2022/09/04 12:09:55;;;;;;;3.40;2.20;;;;;;;;;;2346830;57;21086;-77
2022/09/04 12:12:47;;;;;;;2.95;2.30;;;;;;;;;;2346890;57;21034;-77
2022/09/04 12:15:29;;;;;;;3.15;2.12;;;;;;;;;;2343378;57;21022;-77
2022/09/04 12:18:07;;;;;;;2.97;2.05;;;;;;;;;;2347020;57;21508;-78
2022/09/04 12:20:50;;;;;;;3.05;2.25;;;;;;;;;;2346783;57;21517;-77
2022/09/04 12:23:32;;;;;;;3.25;2.37;;;;;;;;;;2347081;57;21030;-77
2022/09/04 12:26:27;;;;;;;3.30;2.40;;;;;;;;;;2346170;57;21109;-78
2022/09/04 12:29:13;;;;;;;5.28;2.60;;;;;;;;;;2283707;57;21549;-77
2022/09/04 12:32:00;;;;;;;2.72;2.00;;;;;;;;;;2346695;57;21062;-77
2022/09/04 12:34:45;;;;;;;4.78;2.15;;;;;;;;;;2593607;52;21085;-77
2022/09/04 12:37:42;;;;;;;3.85;2.37;;;;;;;;;;2346444;57;21038;-77
2022/09/04 12:40:33;;;;;;;2.95;2.08;;;;;;;;;;2345676;57;21109;-78
2022/09/04 12:43:09;;;;;;;2.87;2.35;;;;;;;;;;2338476;57;21041;-77
2022/09/04 12:45:40;;;;;;;2.92;2.10;;;;;;;;;;2345956;57;21112;-77
2022/09/04 12:48:11;;;;;;;2.75;2.37;;;;;;;;;;2347297;57;21097;-77
2022/09/04 12:50:44;;;;;;;2.97;2.10;;;;;;;;;;2346943;57;21568;-77
2022/09/04 12:53:24;;;;;;;2.83;2.10;;;;;;;;;;2347016;57;21520;-77
2022/09/04 12:56:02;;;;;;;2.62;2.20;;;;;;;;;;2345946;57;21038;-77
2022/09/04 12:58:35;;;;;;;3.25;1.90;;;;;;;;;;2347089;57;21065;-77
2022/09/04 13:01:09;;;;;;;4.53;2.30;;;;;;;;;;2346863;57;21117;-77
2022/09/04 13:03:40;;;;;;;3.17;2.08;;;;;;;;;;2346892;57;21482;-78
2022/09/04 13:06:12;;;;;;;3.17;2.22;;;;;;;;;;2346163;57;21117;-77
2022/09/04 13:08:46;;;;;;;3.57;2.40;;;;;;;;;;2347159;57;21033;-78
2022/09/04 13:11:17;;;;;;;3.00;2.28;;;;;;;;;;2346729;57;21599;-77
2022/09/04 13:13:50;;;;;;;3.05;2.00;;;;;;;;;;2391713;52;21060;-74
2022/09/04 13:16:22;;;;;;;3.67;2.17;;;;;;;;;;2357277;57;22175;-74
2022/09/04 13:18:58;;;;;;;3.15;2.47;;;;;;;;;;2432096;53;21238;-73
2022/09/04 13:21:32;;;;;;;2.67;1.85;;;;;;;;;;2357913;57;21105;-74
2022/09/04 13:24:25;;;;;;;3.58;2.10;;;;;;;;;;2361337;57;21109;-74
2022/09/04 13:26:59;;;;;;;3.42;2.15;;;;;;;;;;2362312;57;21042;-74
2022/09/04 13:29:39;;;;;;;3.67;1.87;;;;;;;;;;2362376;57;21040;-74
2022/09/04 13:32:25;;;;;;;3.90;2.30;;;;;;;;;;2362766;57;21338;-73
2022/09/04 13:35:02;;;;;;;2.97;1.90;;;;;;;;;;2443447;53;21156;-74
2022/09/04 13:37:33;;;;;;;3.95;2.28;;;;;;;;;;2362510;57;21108;-74
2022/09/04 13:40:14;;;;;;;2.92;2.00;;;;;;;;;;2362752;57;21033;-73
2022/09/04 13:42:56;;;;;;;4.28;2.20;;;;;;;;;;2362309;57;21049;-74
2022/09/04 13:45:25;;;;;;;2.50;1.90;;;;;;;;;;2361353;57;21527;-74
2022/09/04 13:47:54;;;;;;;2.55;2.12;;;;;;;;;;2362372;57;21046;-74
2022/09/04 13:50:24;;;;;;;2.67;2.17;;;;;;;;;;2362309;57;21105;-73
2022/09/04 13:52:54;;;;;;;3.45;2.20;;;;;;;;;;2362300;57;21536;-73
2022/09/04 13:55:23;;;;;;;2.72;2.03;;;;;;;;;;2361918;57;21057;-73
2022/09/04 13:57:56;;;;;;;3.05;2.30;;;;;;;;;;2362575;57;21615;-74
2022/09/04 14:00:23;;;;;;;2.60;2.00;;;;;;;;;;2385033;53;21069;-73
2022/09/04 14:02:54;;;;;;;2.90;2.10;;;;;;;;;;2362075;57;21610;-74
2022/09/04 14:05:23;;;;;;;3.50;2.05;;;;;;;;;;2361900;57;21132;-74
2022/09/04 14:07:57;;;;;;;5.22;2.20;;;;;;;;;;2362560;57;21089;-73
2022/09/04 14:10:31;;;;;;;2.60;1.80;;;;;;;;;;2362482;57;21694;-73
2022/09/04 14:13:04;;;;;;;4.12;2.30;;;;;;;;;;2412808;53;21543;-73
2022/09/04 14:15:41;;;;;;;3.55;2.00;;;;;;;;;;2395417;56;21026;-74
2022/09/04 14:18:16;;;;;;;2.53;2.20;;;;;;;;;;2395926;56;21050;-74
2022/09/04 14:20:48;;;;;;;3.45;2.30;;;;;;;;;;2396152;56;21027;-74
2022/09/04 14:23:19;;;;;;;2.80;2.00;;;;;;;;;;2395736;56;22165;-74
2022/09/04 14:25:50;;;;;;;3.87;2.15;;;;;;;;;;2395602;56;21046;-73
2022/09/04 14:28:20;;;;;;;6.20;2.05;;;;;;;;;;2396146;56;21026;-74
2022/09/04 14:30:51;;;;;;;3.97;2.05;;;;;;;;;;2396002;56;21098;-73
2022/09/04 14:33:23;;;;;;;2.90;2.30;;;;;;;;;;2493831;52;21553;-75
2022/09/04 14:35:58;;;;;;;3.60;2.30;;;;;;;;;;2395728;56;21054;-73
2022/09/04 14:38:34;;;;;;;3.22;2.08;;;;;;;;;;2396035;56;21160;-73
2022/09/04 14:41:07;;;;;;;2.60;2.20;;;;;;;;;;2395763;56;21113;-74
2022/09/04 14:43:43;;;;;;;2.60;1.95;;;;;;;;;;2396043;56;21042;-73
2022/09/04 14:46:13;;;;;;;3.90;2.30;;;;;;;;;;2395346;56;21124;-73
2022/09/04 14:48:43;;;;;;;2.60;2.08;;;;;;;;;;2600476;52;21065;-73
2022/09/04 14:51:16;;;;;;;3.28;2.40;;;;;;;;;;2481085;52;21039;-74
2022/09/04 14:53:47;;;;;;;3.17;1.92;;;;;;;;;;2396797;52;21054;-73
2022/09/04 14:56:22;;;;;;;2.92;2.10;;;;;;;;;;2395411;56;21045;-73
2022/09/04 14:58:50;;;;;;;7.80;2.40;;;;;;;;;;2396210;56;21637;-73
2022/09/04 15:01:19;;;;;;;2.97;2.10;;;;;;;;;;2404229;52;21113;-73
2022/09/04 15:03:49;;;;;;;4.03;2.10;;;;;;;;;;2395841;56;21133;-73
2022/09/04 15:06:19;;;;;;;3.37;2.22;;;;;;;;;;2395360;56;21328;-74
2022/09/04 15:08:48;;;;;;;3.15;1.98;;;;;;;;;;2395934;56;21034;-73
2022/09/04 15:11:26;;;;;;;2.53;2.00;;;;;;;;;;2409982;52;21113;-73
2022/09/04 15:13:55;;;;;;;8.27;2.22;;;;;;;;;;2395831;56;21046;-74
2022/09/04 15:16:27;;;;;;;2.35;1.90;;;;;;;;;;2399560;52;21101;-72
2022/09/04 15:19:05;;;;;;;1.90;1.70;;;;;;;;;;2396236;56;21145;-73
2022/09/04 15:21:36;;;;;;;4.12;2.05;;;;;;;;;;2395924;56;21105;-74
2022/09/04 15:24:14;;;;;;;2.70;2.03;;;;;;;;;;2395985;56;21109;-72
2022/09/04 15:26:43;;;;;;;2.95;1.95;;;;;;;;;;2395126;56;21625;-74
2022/09/04 15:29:15;;;;;;;3.78;1.90;;;;;;;;;;2395860;56;21647;-75
2022/09/04 15:31:42;;;;;;;4.25;2.17;;;;;;;;;;2395971;56;21116;-75
2022/09/04 15:34:11;;;;;;;2.65;2.10;;;;;;;;;;2395913;56;21035;-74
2022/09/04 15:36:38;;;;;;;3.70;1.90;;;;;;;;;;2395503;56;21042;-75
2022/09/04 15:39:06;;;;;;;5.07;1.98;;;;;;;;;;2396110;56;21062;-74
2022/09/04 15:41:36;;;;;;;3.50;2.22;;;;;;;;;;2403219;52;21114;-74
2022/09/04 15:44:10;;;;;;;2.60;2.03;;;;;;;;;;2395670;56;21122;-75
2022/09/04 15:46:45;;;;;;;3.10;2.10;;;;;;;;;;2395332;56;21628;-74
2022/09/04 15:49:23;;;;;;;2.58;1.90;;;;;;;;;;2403177;52;21082;-74